Tuesday, September 2, 2014, 7:39 PM EDT

KRDG, Reading Regional Airport

Location: Reading, PA, United States Lat: 40.367
Local Time: 7:39 PM EDT (23:39 GMT) Lon: -75.967
Time Zone: US/Eastern Elev: 344 ft

Show me the last for .
Show Decoded

2014-09-02 19:25 METAR KRDG 022325Z 23009KT 10SM -RA FEW085 SCT120 27/22 A2983 RMK AO2 LTG DSNT
                 SE AND S RAB20 P0001 T02670222 =
2014-09-02 19:10 METAR KRDG 022310Z 26007KT 10SM VCTS FEW045 BKN085 27/22 A2983 RMK AO2 LTG DSNT
                 ALQDS T02720217 =
2014-09-02 18:54 METAR KRDG 022254Z 22004KT 10SM BKN080 28/22 A2983 RMK AO2 LTG DSNT NE AND S AND
                 W RAB2156E15 SLP102 P0000 T02780217 =
2014-09-02 18:38 METAR KRDG 022238Z 23004KT 10SM FEW085 27/22 A2984 =
2014-09-02 18:17 METAR KRDG 022217Z 24008G18KT 10SM VCTS FEW050 SCT065 SCT090 28/21 A2984 RMK AO2
                 LTG DSNT N RAB2156E15 P0000 T02780211 =
2014-09-02 17:54 METAR KRDG 022154Z 19008KT 10SM FEW060 30/20 A2983 RMK AO2 SLP104 T03000200 =
2014-09-02 16:54 METAR KRDG 022054Z AUTO 21011KT 10SM CLR 32/20 A2984 RMK AO2 SLP105 T03220200
                 56022 =
2014-09-02 15:54 METAR KRDG 021954Z 24009KT 10SM CLR 32/19 A2985 RMK AO2 SLP110 T03220194 =
2014-09-02 14:54 METAR KRDG 021854Z 25013G18KT 10SM FEW075 32/19 A2988 RMK AO2 SLP118 T03220194 =
2014-09-02 13:54 METAR KRDG 021754Z 23011KT 10SM BKN042 32/20 A2990 RMK AO2 SLP127 T03220200
                 10322 20233 58017 =
2014-09-02 12:54 METAR KRDG 021654Z 28005KT 10SM SCT042 32/20 A2992 RMK AO2 SLP132 T03170200 =
2014-09-02 11:54 METAR KRDG 021554Z 25007KT 10SM SCT031 30/21 A2994 RMK AO2 SLP140 T03000211 =
2014-09-02 10:54 METAR KRDG 021454Z 27007KT 10SM CLR 29/22 A2995 RMK AO2 SLP144 T02940217 56000 =
2014-09-02 09:54 METAR KRDG 021354Z 26003KT 10SM SCT039 28/22 A2995 RMK AO2 SLP144 T02780217 =
2014-09-02 08:54 METAR KRDG 021254Z 00000KT 10SM CLR 26/22 A2995 RMK AO2 SLP145 T02560217 =
2014-09-02 07:54 METAR KRDG 021154Z 00000KT 10SM CLR 23/22 A2995 RMK AO2 SLP145 70006 T02330217
                 10233 20211 53013 =
2014-09-02 06:54 METAR KRDG 021054Z AUTO 00000KT 10SM CLR 22/20 A2993 RMK AO2 SLP139 T02170200 =
2014-09-02 06:42 METAR KRDG 021042Z AUTO 00000KT 10SM CLR 22/20 A2993 RMK AO2 T02170200 =
2014-09-02 05:54 METAR KRDG 020954Z AUTO 00000KT 10SM CLR 22/21 A2991 RMK AO2 SLP132 T02220211 =
2014-09-02 04:54 METAR KRDG 020854Z AUTO 23003KT 10SM CLR 23/21 A2992 RMK AO2 SLP132 T02280211
                 56007 =
2014-09-02 03:54 METAR KRDG 020754Z AUTO 18003KT 10SM CLR 23/21 A2992 RMK AO2 SLP134 T02280211 =
2014-09-02 02:54 METAR KRDG 020654Z AUTO 00000KT 10SM BKN060 23/22 A2992 =
2014-09-02 02:41 METAR KRDG 020641Z 00000KT 10SM FEW060 23/22 A2993 RMK AO2 T02330217 =
2014-09-02 02:33 METAR KRDG 020633Z 00000KT 2 1/2SM BR CLR 23/22 A2993 RMK AO2 T02280217 =
2014-09-02 01:54 METAR KRDG 020554Z 00000KT 10SM CLR 23/22 A2994 RMK AO2 SLP139 60006 T02280217
                 10278 20228 58005 =
2014-09-02 00:54 METAR KRDG 020454Z 00000KT 10SM FEW060 23/22 A2995 RMK AO2 SLP142 T02330222
                 403110222 =
2014-09-01 23:54 METAR KRDG 020354Z 00000KT 10SM CLR 24/22 A2995 RMK AO2 SLP145 T02390222 =
2014-09-01 22:54 METAR KRDG 020254Z 00000KT 10SM CLR 24/22 A2995 =
2014-09-01 22:33 METAR KRDG 020233Z 14003KT 4SM BR CLR 24/23 A2995 RMK AO2 T02390228 =
2014-09-01 22:20 METAR KRDG 020220Z 00000KT 1 3/4SM BR CLR 24/23 A2995 RMK AO2 T02390228 =
2014-09-01 21:54 METAR KRDG 020154Z 00000KT 10SM CLR 25/22 A2996 =
2014-09-01 20:54 METAR KRDG 020054Z 17005KT 10SM FEW020 BKN050 26/23 A2995 RMK AO2 LTG DSNT S
                 RAB35E50 SLP145 P0006 T02560228 =
2014-09-01 19:54 METAR KRDG 012354Z 17003KT 10SM FEW060 BKN080 28/21 A2993 RMK AO2 LTG DSNT SW
                 SLP138 T02780211 10311 20278 55001 =

Support USWX by starting your Amazon purchase here.